sensor_id;sensor_type;location;lat;lon;timestamp;temperature;humidity
6581;DHT22;3324;50.796;7.228;2022-12-10T00:02:10;1.10;99.90
6581;DHT22;3324;50.796;7.228;2022-12-10T00:04:35;1.00;99.90
6581;DHT22;3324;50.796;7.228;2022-12-10T00:07:01;0.90;99.90
6581;DHT22;3324;50.796;7.228;2022-12-10T00:09:26;0.90;99.90
6581;DHT22;3324;50.796;7.228;2022-12-10T00:11:52;0.90;99.90
6581;DHT22;3324;50.796;7.228;2022-12-10T00:14:18;0.90;99.90
6581;DHT22;3324;50.796;7.228;2022-12-10T00:16:44;1.00;99.90
6581;DHT22;3324;50.796;7.228;2022-12-10T00:19:10;0.90;99.90
6581;DHT22;3324;50.796;7.228;2022-12-10T00:21:36;0.90;99.90
6581;DHT22;3324;50.796;7.228;2022-12-10T00:24:02;0.90;99.90
6581;DHT22;3324;50.796;7.228;2022-12-10T00:26:35;0.90;99.90
6581;DHT22;3324;50.796;7.228;2022-12-10T00:29:02;0.80;99.90
6581;DHT22;3324;50.796;7.228;2022-12-10T00:31:30;0.80;99.90
6581;DHT22;3324;50.796;7.228;2022-12-10T00:33:57;0.80;99.90
6581;DHT22;3324;50.796;7.228;2022-12-10T00:36:27;0.80;99.90
6581;DHT22;3324;50.796;7.228;2022-12-10T00:38:53;0.90;99.90
6581;DHT22;3324;50.796;7.228;2022-12-10T00:41:19;0.80;99.90
6581;DHT22;3324;50.796;7.228;2022-12-10T00:43:45;0.90;99.90
6581;DHT22;3324;50.796;7.228;2022-12-10T00:46:12;0.80;99.90
6581;DHT22;3324;50.796;7.228;2022-12-10T00:48:38;0.80;99.90
6581;DHT22;3324;50.796;7.228;2022-12-10T00:51:15;0.90;99.90
6581;DHT22;3324;50.796;7.228;2022-12-10T00:53:42;0.80;99.90
6581;DHT22;3324;50.796;7.228;2022-12-10T00:56:10;0.80;99.90
6581;DHT22;3324;50.796;7.228;2022-12-10T00:58:37;0.80;99.90
6581;DHT22;3324;50.796;7.228;2022-12-10T01:01:13;0.80;99.90
6581;DHT22;3324;50.796;7.228;2022-12-10T01:03:40;0.70;99.90
6581;DHT22;3324;50.796;7.228;2022-12-10T01:06:15;0.70;99.90
6581;DHT22;3324;50.796;7.228;2022-12-10T01:08:41;0.70;99.90
6581;DHT22;3324;50.796;7.228;2022-12-10T01:11:07;0.70;99.90
6581;DHT22;3324;50.796;7.228;2022-12-10T01:13:33;0.70;99.90
6581;DHT22;3324;50.796;7.228;2022-12-10T01:16:03;0.70;99.90
6581;DHT22;3324;50.796;7.228;2022-12-10T01:18:30;0.60;99.90
6581;DHT22;3324;50.796;7.228;2022-12-10T01:21:03;0.70;99.90
6581;DHT22;3324;50.796;7.228;2022-12-10T01:23:32;0.80;99.90
6581;DHT22;3324;50.796;7.228;2022-12-10T01:26:09;0.80;99.90
6581;DHT22;3324;50.796;7.228;2022-12-10T01:28:37;0.80;99.90
6581;DHT22;3324;50.796;7.228;2022-12-10T01:31:05;0.70;99.90
6581;DHT22;3324;50.796;7.228;2022-12-10T01:33:32;0.70;99.90
6581;DHT22;3324;50.796;7.228;2022-12-10T01:36:09;0.80;99.90
6581;DHT22;3324;50.796;7.228;2022-12-10T01:38:36;0.70;99.90
6581;DHT22;3324;50.796;7.228;2022-12-10T01:41:02;0.70;99.90
6581;DHT22;3324;50.796;7.228;2022-12-10T01:43:29;0.70;99.90
6581;DHT22;3324;50.796;7.228;2022-12-10T01:45:55;0.70;99.90
6581;DHT22;3324;50.796;7.228;2022-12-10T01:48:20;0.70;99.90
6581;DHT22;3324;50.796;7.228;2022-12-10T01:50:46;0.70;99.90
6581;DHT22;3324;50.796;7.228;2022-12-10T01:53:12;0.70;99.90
6581;DHT22;3324;50.796;7.228;2022-12-10T01:55:50;0.60;99.90
6581;DHT22;3324;50.796;7.228;2022-12-10T01:58:17;0.60;99.90
6581;DHT22;3324;50.796;7.228;2022-12-10T02:00:58;0.60;99.90
6581;DHT22;3324;50.796;7.228;2022-12-10T02:06:35;0.60;99.90
6581;DHT22;3324;50.796;7.228;2022-12-10T02:09:04;0.60;99.90
6581;DHT22;3324;50.796;7.228;2022-12-10T02:14:25;0.60;99.90
6581;DHT22;3324;50.796;7.228;2022-12-10T02:16:58;0.70;99.90
6581;DHT22;3324;50.796;7.228;2022-12-10T02:22:12;0.70;99.90
6581;DHT22;3324;50.796;7.228;2022-12-10T02:24:39;0.60;99.90
6581;DHT22;3324;50.796;7.228;2022-12-10T02:29:41;0.60;99.90
6581;DHT22;3324;50.796;7.228;2022-12-10T02:32:13;0.70;99.90
6581;DHT22;3324;50.796;7.228;2022-12-10T02:34:42;0.70;99.90
6581;DHT22;3324;50.796;7.228;2022-12-10T02:37:16;0.70;99.90
6581;DHT22;3324;50.796;7.228;2022-12-10T02:39:47;0.70;99.90
6581;DHT22;3324;50.796;7.228;2022-12-10T02:42:15;0.70;99.90
6581;DHT22;3324;50.796;7.228;2022-12-10T02:44:42;0.70;99.90
6581;DHT22;3324;50.796;7.228;2022-12-10T02:47:10;0.70;99.90
6581;DHT22;3324;50.796;7.228;2022-12-10T02:49:37;0.70;99.90
6581;DHT22;3324;50.796;7.228;2022-12-10T02:52:09;0.60;99.90
6581;DHT22;3324;50.796;7.228;2022-12-10T02:57:12;0.60;99.90
6581;DHT22;3324;50.796;7.228;2022-12-10T02:59:48;0.60;99.90
6581;DHT22;3324;50.796;7.228;2022-12-10T03:02:17;0.50;99.90
6581;DHT22;3324;50.796;7.228;2022-12-10T03:07:55;0.50;99.90
6581;DHT22;3324;50.796;7.228;2022-12-10T03:10:39;0.60;99.90
6581;DHT22;3324;50.796;7.228;2022-12-10T03:13:09;0.60;99.90
6581;DHT22;3324;50.796;7.228;2022-12-10T03:15:38;0.80;99.90
6581;DHT22;3324;50.796;7.228;2022-12-10T03:18:06;0.80;99.90
6581;DHT22;3324;50.796;7.228;2022-12-10T03:20:36;0.80;99.90
6581;DHT22;3324;50.796;7.228;2022-12-10T03:23:03;0.80;99.90
6581;DHT22;3324;50.796;7.228;2022-12-10T03:25:32;0.90;99.90
6581;DHT22;3324;50.796;7.228;2022-12-10T03:27:59;0.80;99.90
6581;DHT22;3324;50.796;7.228;2022-12-10T03:30:26;0.80;99.90
6581;DHT22;3324;50.796;7.228;2022-12-10T03:32:52;0.90;99.90
6581;DHT22;3324;50.796;7.228;2022-12-10T03:35:19;0.90;99.90
6581;DHT22;3324;50.796;7.228;2022-12-10T03:37:46;0.90;99.90
6581;DHT22;3324;50.796;7.228;2022-12-10T03:40:12;0.90;99.90
6581;DHT22;3324;50.796;7.228;2022-12-10T03:42:38;0.90;99.90
6581;DHT22;3324;50.796;7.228;2022-12-10T03:45:04;0.90;99.90
6581;DHT22;3324;50.796;7.228;2022-12-10T03:47:30;0.90;99.90
6581;DHT22;3324;50.796;7.228;2022-12-10T03:49:56;1.00;99.90
6581;DHT22;3324;50.796;7.228;2022-12-10T03:52:22;1.10;99.90
6581;DHT22;3324;50.796;7.228;2022-12-10T03:54:47;1.10;99.90
6581;DHT22;3324;50.796;7.228;2022-12-10T03:57:13;1.00;99.90
6581;DHT22;3324;50.796;7.228;2022-12-10T03:59:38;0.90;99.90
6581;DHT22;3324;50.796;7.228;2022-12-10T04:02:04;1.00;99.90
6581;DHT22;3324;50.796;7.228;2022-12-10T04:04:30;0.90;99.90
6581;DHT22;3324;50.796;7.228;2022-12-10T04:06:55;1.00;99.90
6581;DHT22;3324;50.796;7.228;2022-12-10T04:09:21;1.00;99.90
6581;DHT22;3324;50.796;7.228;2022-12-10T04:11:47;1.00;99.90
6581;DHT22;3324;50.796;7.228;2022-12-10T04:14:13;1.00;99.90
6581;DHT22;3324;50.796;7.228;2022-12-10T04:16:58;1.00;99.90
6581;DHT22;3324;50.796;7.228;2022-12-10T04:19:24;1.00;99.90
6581;DHT22;3324;50.796;7.228;2022-12-10T04:21:50;1.00;99.90
6581;DHT22;3324;50.796;7.228;2022-12-10T04:24:51;1.10;99.90
6581;DHT22;3324;50.796;7.228;2022-12-10T04:27:37;1.00;99.90
6581;DHT22;3324;50.796;7.228;2022-12-10T04:30:05;1.00;99.90
6581;DHT22;3324;50.796;7.228;2022-12-10T04:32:31;1.00;99.90
6581;DHT22;3324;50.796;7.228;2022-12-10T04:34:56;1.00;99.90
6581;DHT22;3324;50.796;7.228;2022-12-10T04:37:23;1.10;99.90
6581;DHT22;3324;50.796;7.228;2022-12-10T04:39:50;1.10;99.90
6581;DHT22;3324;50.796;7.228;2022-12-10T04:42:16;1.10;99.90
6581;DHT22;3324;50.796;7.228;2022-12-10T04:44:42;1.10;99.90
6581;DHT22;3324;50.796;7.228;2022-12-10T04:47:08;1.10;99.90
6581;DHT22;3324;50.796;7.228;2022-12-10T04:49:34;1.10;99.90
6581;DHT22;3324;50.796;7.228;2022-12-10T04:52:00;1.10;99.90
6581;DHT22;3324;50.796;7.228;2022-12-10T04:54:26;1.10;99.90
6581;DHT22;3324;50.796;7.228;2022-12-10T04:56:52;1.20;99.90
6581;DHT22;3324;50.796;7.228;2022-12-10T04:59:18;1.20;99.90
6581;DHT22;3324;50.796;7.228;2022-12-10T05:01:44;1.20;99.90
6581;DHT22;3324;50.796;7.228;2022-12-10T05:04:12;1.20;99.90
6581;DHT22;3324;50.796;7.228;2022-12-10T05:06:38;1.10;99.90
6581;DHT22;3324;50.796;7.228;2022-12-10T05:09:05;1.10;99.90
6581;DHT22;3324;50.796;7.228;2022-12-10T05:11:31;1.10;99.90
6581;DHT22;3324;50.796;7.228;2022-12-10T05:13:58;1.10;99.90
6581;DHT22;3324;50.796;7.228;2022-12-10T05:16:27;1.20;99.90
6581;DHT22;3324;50.796;7.228;2022-12-10T05:18:54;1.20;99.90
6581;DHT22;3324;50.796;7.228;2022-12-10T05:21:21;1.20;99.90
6581;DHT22;3324;50.796;7.228;2022-12-10T05:23:50;1.20;99.90
6581;DHT22;3324;50.796;7.228;2022-12-10T05:26:17;1.10;99.90
6581;DHT22;3324;50.796;7.228;2022-12-10T05:28:52;1.10;99.90
6581;DHT22;3324;50.796;7.228;2022-12-10T05:31:23;1.10;99.90
6581;DHT22;3324;50.796;7.228;2022-12-10T05:33:49;1.10;99.90
6581;DHT22;3324;50.796;7.228;2022-12-10T05:36:19;1.10;99.90
6581;DHT22;3324;50.796;7.228;2022-12-10T05:38:45;1.10;99.90
6581;DHT22;3324;50.796;7.228;2022-12-10T05:41:20;1.20;99.90
6581;DHT22;3324;50.796;7.228;2022-12-10T05:43:47;1.20;99.90
6581;DHT22;3324;50.796;7.228;2022-12-10T05:46:15;1.20;99.90
6581;DHT22;3324;50.796;7.228;2022-12-10T05:48:41;1.20;99.90
6581;DHT22;3324;50.796;7.228;2022-12-10T05:51:13;1.20;99.90
6581;DHT22;3324;50.796;7.228;2022-12-10T05:53:39;1.20;99.90
6581;DHT22;3324;50.796;7.228;2022-12-10T05:56:07;1.20;99.90
6581;DHT22;3324;50.796;7.228;2022-12-10T05:58:34;1.20;99.90
6581;DHT22;3324;50.796;7.228;2022-12-10T06:01:05;1.20;99.90
6581;DHT22;3324;50.796;7.228;2022-12-10T06:03:31;1.20;99.90
6581;DHT22;3324;50.796;7.228;2022-12-10T06:05:56;1.30;99.90
6581;DHT22;3324;50.796;7.228;2022-12-10T06:08:22;1.20;99.90
6581;DHT22;3324;50.796;7.228;2022-12-10T06:10:48;1.40;99.90
6581;DHT22;3324;50.796;7.228;2022-12-10T06:13:13;1.30;99.90
6581;DHT22;3324;50.796;7.228;2022-12-10T06:15:40;1.30;99.90
6581;DHT22;3324;50.796;7.228;2022-12-10T06:18:06;1.30;99.90
6581;DHT22;3324;50.796;7.228;2022-12-10T06:20:32;1.30;99.90
6581;DHT22;3324;50.796;7.228;2022-12-10T06:22:57;1.30;99.90
6581;DHT22;3324;50.796;7.228;2022-12-10T06:25:23;1.30;99.90
6581;DHT22;3324;50.796;7.228;2022-12-10T06:27:49;1.30;99.90
6581;DHT22;3324;50.796;7.228;2022-12-10T06:30:14;1.30;99.90
6581;DHT22;3324;50.796;7.228;2022-12-10T06:32:40;1.30;99.90
6581;DHT22;3324;50.796;7.228;2022-12-10T06:35:09;1.30;99.90
6581;DHT22;3324;50.796;7.228;2022-12-10T06:37:35;1.40;99.90
6581;DHT22;3324;50.796;7.228;2022-12-10T06:40:01;1.30;99.90
6581;DHT22;3324;50.796;7.228;2022-12-10T06:42:27;1.40;99.90
6581;DHT22;3324;50.796;7.228;2022-12-10T06:44:52;1.40;99.90
6581;DHT22;3324;50.796;7.228;2022-12-10T06:47:18;1.40;99.90
6581;DHT22;3324;50.796;7.228;2022-12-10T06:49:43;1.40;99.90
6581;DHT22;3324;50.796;7.228;2022-12-10T06:52:09;1.40;99.90
6581;DHT22;3324;50.796;7.228;2022-12-10T06:54:34;1.40;99.90
6581;DHT22;3324;50.796;7.228;2022-12-10T06:57:00;1.40;99.90
6581;DHT22;3324;50.796;7.228;2022-12-10T06:59:26;1.30;99.90
6581;DHT22;3324;50.796;7.228;2022-12-10T07:01:51;1.40;99.90
6581;DHT22;3324;50.796;7.228;2022-12-10T07:04:17;1.30;99.90
6581;DHT22;3324;50.796;7.228;2022-12-10T07:06:43;1.30;99.90
6581;DHT22;3324;50.796;7.228;2022-12-10T07:09:09;1.30;99.90
6581;DHT22;3324;50.796;7.228;2022-12-10T07:11:37;1.30;99.90
6581;DHT22;3324;50.796;7.228;2022-12-10T07:14:03;1.20;99.90
6581;DHT22;3324;50.796;7.228;2022-12-10T07:16:30;1.20;99.90
6581;DHT22;3324;50.796;7.228;2022-12-10T07:18:58;1.20;99.90
6581;DHT22;3324;50.796;7.228;2022-12-10T07:21:32;1.30;99.90
6581;DHT22;3324;50.796;7.228;2022-12-10T07:24:00;1.30;99.90
6581;DHT22;3324;50.796;7.228;2022-12-10T07:26:29;1.20;99.90
6581;DHT22;3324;50.796;7.228;2022-12-10T07:28:55;1.30;99.90
6581;DHT22;3324;50.796;7.228;2022-12-10T07:31:22;1.20;99.90
6581;DHT22;3324;50.796;7.228;2022-12-10T07:33:49;1.30;99.90
6581;DHT22;3324;50.796;7.228;2022-12-10T07:36:15;1.30;99.90
6581;DHT22;3324;50.796;7.228;2022-12-10T07:38:41;1.30;99.90
6581;DHT22;3324;50.796;7.228;2022-12-10T07:41:09;1.20;99.90
6581;DHT22;3324;50.796;7.228;2022-12-10T07:43:37;1.30;99.90
6581;DHT22;3324;50.796;7.228;2022-12-10T07:46:12;1.40;99.90
6581;DHT22;3324;50.796;7.228;2022-12-10T07:48:39;1.40;99.90
6581;DHT22;3324;50.796;7.228;2022-12-10T07:51:06;1.40;99.90
6581;DHT22;3324;50.796;7.228;2022-12-10T07:53:31;1.40;99.90
6581;DHT22;3324;50.796;7.228;2022-12-10T07:55:57;1.40;99.90
6581;DHT22;3324;50.796;7.228;2022-12-10T07:58:23;1.40;99.90
6581;DHT22;3324;50.796;7.228;2022-12-10T08:00:48;1.40;99.90
6581;DHT22;3324;50.796;7.228;2022-12-10T08:03:14;1.50;99.90
6581;DHT22;3324;50.796;7.228;2022-12-10T08:05:39;1.60;99.90
6581;DHT22;3324;50.796;7.228;2022-12-10T08:08:05;1.50;99.90
6581;DHT22;3324;50.796;7.228;2022-12-10T08:10:34;1.50;99.90
6581;DHT22;3324;50.796;7.228;2022-12-10T08:13:02;1.50;99.90
6581;DHT22;3324;50.796;7.228;2022-12-10T08:15:28;1.40;99.90
6581;DHT22;3324;50.796;7.228;2022-12-10T08:17:54;1.40;99.90
6581;DHT22;3324;50.796;7.228;2022-12-10T08:20:21;1.50;99.90
6581;DHT22;3324;50.796;7.228;2022-12-10T08:22:46;1.50;99.90
6581;DHT22;3324;50.796;7.228;2022-12-10T08:25:12;1.50;99.90
6581;DHT22;3324;50.796;7.228;2022-12-10T08:27:37;1.40;99.90
6581;DHT22;3324;50.796;7.228;2022-12-10T08:30:03;1.50;99.90
6581;DHT22;3324;50.796;7.228;2022-12-10T08:32:29;1.50;99.90
6581;DHT22;3324;50.796;7.228;2022-12-10T08:34:55;1.50;99.90
6581;DHT22;3324;50.796;7.228;2022-12-10T08:37:21;1.60;99.90
6581;DHT22;3324;50.796;7.228;2022-12-10T08:39:46;1.50;99.90
6581;DHT22;3324;50.796;7.228;2022-12-10T08:42:12;1.60;99.90
6581;DHT22;3324;50.796;7.228;2022-12-10T08:44:38;1.50;99.90
6581;DHT22;3324;50.796;7.228;2022-12-10T08:47:03;1.60;99.90
6581;DHT22;3324;50.796;7.228;2022-12-10T08:49:29;1.60;99.90
6581;DHT22;3324;50.796;7.228;2022-12-10T08:51:54;1.60;99.90
6581;DHT22;3324;50.796;7.228;2022-12-10T08:54:20;1.60;99.90
6581;DHT22;3324;50.796;7.228;2022-12-10T08:56:45;1.60;99.90
6581;DHT22;3324;50.796;7.228;2022-12-10T08:59:11;1.60;99.90
6581;DHT22;3324;50.796;7.228;2022-12-10T09:01:37;1.60;99.90
6581;DHT22;3324;50.796;7.228;2022-12-10T09:04:02;1.70;99.90
6581;DHT22;3324;50.796;7.228;2022-12-10T09:06:28;1.70;99.90
6581;DHT22;3324;50.796;7.228;2022-12-10T09:08:53;1.80;99.90
6581;DHT22;3324;50.796;7.228;2022-12-10T09:11:27;1.80;99.90
6581;DHT22;3324;50.796;7.228;2022-12-10T09:13:53;1.70;99.90
6581;DHT22;3324;50.796;7.228;2022-12-10T09:16:19;1.70;99.90
6581;DHT22;3324;50.796;7.228;2022-12-10T09:18:44;1.70;99.90
6581;DHT22;3324;50.796;7.228;2022-12-10T09:21:13;1.80;99.90
6581;DHT22;3324;50.796;7.228;2022-12-10T09:23:39;1.90;99.90
6581;DHT22;3324;50.796;7.228;2022-12-10T09:26:07;1.90;99.90
6581;DHT22;3324;50.796;7.228;2022-12-10T09:28:32;2.00;99.90
6581;DHT22;3324;50.796;7.228;2022-12-10T09:30:59;1.90;99.90
6581;DHT22;3324;50.796;7.228;2022-12-10T09:33:26;1.90;99.90
6581;DHT22;3324;50.796;7.228;2022-12-10T09:35:52;2.00;99.90
6581;DHT22;3324;50.796;7.228;2022-12-10T09:38:18;2.00;99.90
6581;DHT22;3324;50.796;7.228;2022-12-10T09:40:48;2.00;99.90
6581;DHT22;3324;50.796;7.228;2022-12-10T09:51:28;2.00;99.90
6581;DHT22;3324;50.796;7.228;2022-12-10T09:53:56;2.10;99.90
6581;DHT22;3324;50.796;7.228;2022-12-10T09:56:37;2.10;99.90
6581;DHT22;3324;50.796;7.228;2022-12-10T09:59:20;2.20;99.90
6581;DHT22;3324;50.796;7.228;2022-12-10T10:01:50;2.20;99.90
6581;DHT22;3324;50.796;7.228;2022-12-10T10:04:23;2.30;99.90
6581;DHT22;3324;50.796;7.228;2022-12-10T10:06:49;3.60;99.90
6581;DHT22;3324;50.796;7.228;2022-12-10T10:09:15;4.70;99.90
6581;DHT22;3324;50.796;7.228;2022-12-10T10:11:42;5.10;99.90
6581;DHT22;3324;50.796;7.228;2022-12-10T10:14:14;4.70;99.90
6581;DHT22;3324;50.796;7.228;2022-12-10T10:19:19;3.90;99.90
6581;DHT22;3324;50.796;7.228;2022-12-10T10:21:48;3.60;99.90
6581;DHT22;3324;50.796;7.228;2022-12-10T10:24:17;3.40;99.90
6581;DHT22;3324;50.796;7.228;2022-12-10T10:26:44;3.30;99.90
6581;DHT22;3324;50.796;7.228;2022-12-10T10:29:13;3.10;99.90
6581;DHT22;3324;50.796;7.228;2022-12-10T10:31:41;3.00;99.90
6581;DHT22;3324;50.796;7.228;2022-12-10T10:34:22;2.90;99.90
6581;DHT22;3324;50.796;7.228;2022-12-10T10:36:56;2.90;99.90
6581;DHT22;3324;50.796;7.228;2022-12-10T10:39:30;2.90;99.90
6581;DHT22;3324;50.796;7.228;2022-12-10T10:41:58;2.90;99.90
6581;DHT22;3324;50.796;7.228;2022-12-10T10:44:27;2.80;99.90
6581;DHT22;3324;50.796;7.228;2022-12-10T10:46:55;2.80;99.90
6581;DHT22;3324;50.796;7.228;2022-12-10T10:49:22;2.80;99.90
6581;DHT22;3324;50.796;7.228;2022-12-10T10:51:49;2.80;99.90
6581;DHT22;3324;50.796;7.228;2022-12-10T10:54:38;2.80;99.90
6581;DHT22;3324;50.796;7.228;2022-12-10T10:59:36;2.80;99.90
6581;DHT22;3324;50.796;7.228;2022-12-10T11:02:32;2.80;99.90
6581;DHT22;3324;50.796;7.228;2022-12-10T11:05:08;2.80;99.90
6581;DHT22;3324;50.796;7.228;2022-12-10T11:07:39;2.80;99.90
6581;DHT22;3324;50.796;7.228;2022-12-10T11:12:45;2.80;99.90
6581;DHT22;3324;50.796;7.228;2022-12-10T11:17:54;2.80;99.90
6581;DHT22;3324;50.796;7.228;2022-12-10T11:20:23;2.80;99.90
6581;DHT22;3324;50.796;7.228;2022-12-10T11:23:01;2.90;99.90
6581;DHT22;3324;50.796;7.228;2022-12-10T11:28:44;2.80;99.90
6581;DHT22;3324;50.796;7.228;2022-12-10T11:37:03;2.90;99.90
6581;DHT22;3324;50.796;7.228;2022-12-10T11:40:17;2.90;99.90
6581;DHT22;3324;50.796;7.228;2022-12-10T11:51:08;2.80;99.90
6581;DHT22;3324;50.796;7.228;2022-12-10T11:56:24;2.90;99.90
6581;DHT22;3324;50.796;7.228;2022-12-10T11:59:13;3.00;99.90
6581;DHT22;3324;50.796;7.228;2022-12-10T12:02:05;2.90;99.90
6581;DHT22;3324;50.796;7.228;2022-12-10T12:16:47;2.90;99.90
6581;DHT22;3324;50.796;7.228;2022-12-10T12:19:19;2.90;99.90
6581;DHT22;3324;50.796;7.228;2022-12-10T12:21:49;2.90;99.90
6581;DHT22;3324;50.796;7.228;2022-12-10T12:24:33;2.90;99.90
6581;DHT22;3324;50.796;7.228;2022-12-10T12:30:05;2.90;99.90
6581;DHT22;3324;50.796;7.228;2022-12-10T12:32:54;2.90;99.90
6581;DHT22;3324;50.796;7.228;2022-12-10T12:38:18;3.00;99.90
6581;DHT22;3324;50.796;7.228;2022-12-10T12:45:59;3.00;99.90
6581;DHT22;3324;50.796;7.228;2022-12-10T12:48:58;3.00;99.90
6581;DHT22;3324;50.796;7.228;2022-12-10T12:51:33;3.10;99.90
6581;DHT22;3324;50.796;7.228;2022-12-10T12:54:01;3.10;99.90
6581;DHT22;3324;50.796;7.228;2022-12-10T13:04:50;3.10;99.90
6581;DHT22;3324;50.796;7.228;2022-12-10T13:12:31;3.10;99.90
6581;DHT22;3324;50.796;7.228;2022-12-10T13:15:33;3.10;99.90
6581;DHT22;3324;50.796;7.228;2022-12-10T13:20:46;3.10;99.90
6581;DHT22;3324;50.796;7.228;2022-12-10T13:28:28;3.00;99.90
6581;DHT22;3324;50.796;7.228;2022-12-10T13:39:36;3.00;99.90
6581;DHT22;3324;50.796;7.228;2022-12-10T13:49:59;3.10;99.90
6581;DHT22;3324;50.796;7.228;2022-12-10T14:01:00;3.00;99.90
6581;DHT22;3324;50.796;7.228;2022-12-10T14:08:40;3.20;99.90
6581;DHT22;3324;50.796;7.228;2022-12-10T14:11:18;3.20;99.90
6581;DHT22;3324;50.796;7.228;2022-12-10T14:13:49;3.20;99.90
6581;DHT22;3324;50.796;7.228;2022-12-10T14:16:20;3.20;99.90
6581;DHT22;3324;50.796;7.228;2022-12-10T14:18:52;3.20;99.90
6581;DHT22;3324;50.796;7.228;2022-12-10T14:21:19;3.10;99.90
6581;DHT22;3324;50.796;7.228;2022-12-10T14:23:47;3.20;99.90
6581;DHT22;3324;50.796;7.228;2022-12-10T14:26:42;3.20;99.90
6581;DHT22;3324;50.796;7.228;2022-12-10T14:31:39;3.10;99.90
6581;DHT22;3324;50.796;7.228;2022-12-10T14:34:14;3.10;99.90
6581;DHT22;3324;50.796;7.228;2022-12-10T14:36:48;3.30;99.90
6581;DHT22;3324;50.796;7.228;2022-12-10T14:39:17;3.20;99.90
6581;DHT22;3324;50.796;7.228;2022-12-10T14:41:43;3.10;99.90
6581;DHT22;3324;50.796;7.228;2022-12-10T14:44:15;3.00;99.90
6581;DHT22;3324;50.796;7.228;2022-12-10T14:46:41;3.00;99.90
6581;DHT22;3324;50.796;7.228;2022-12-10T14:49:15;2.90;99.90
6581;DHT22;3324;50.796;7.228;2022-12-10T14:51:41;2.90;99.90
6581;DHT22;3324;50.796;7.228;2022-12-10T14:54:56;2.70;99.90
6581;DHT22;3324;50.796;7.228;2022-12-10T14:57:35;2.60;99.90
6581;DHT22;3324;50.796;7.228;2022-12-10T15:00:15;2.60;99.90
6581;DHT22;3324;50.796;7.228;2022-12-10T15:02:45;2.50;99.90
6581;DHT22;3324;50.796;7.228;2022-12-10T15:05:19;2.50;99.90
6581;DHT22;3324;50.796;7.228;2022-12-10T15:08:17;2.50;99.90
6581;DHT22;3324;50.796;7.228;2022-12-10T15:10:45;2.50;99.90
6581;DHT22;3324;50.796;7.228;2022-12-10T15:15:50;2.70;99.90
6581;DHT22;3324;50.796;7.228;2022-12-10T15:18:19;2.70;99.90
6581;DHT22;3324;50.796;7.228;2022-12-10T15:20:47;2.70;99.90
6581;DHT22;3324;50.796;7.228;2022-12-10T15:23:20;2.70;99.90
6581;DHT22;3324;50.796;7.228;2022-12-10T15:25:59;2.60;99.90
6581;DHT22;3324;50.796;7.228;2022-12-10T15:28:34;2.50;99.90
6581;DHT22;3324;50.796;7.228;2022-12-10T15:34:00;2.40;99.90
6581;DHT22;3324;50.796;7.228;2022-12-10T15:36:54;2.40;99.90
6581;DHT22;3324;50.796;7.228;2022-12-10T15:39:29;2.30;99.90
6581;DHT22;3324;50.796;7.228;2022-12-10T15:41:56;2.20;99.90
6581;DHT22;3324;50.796;7.228;2022-12-10T15:44:33;2.20;99.90
6581;DHT22;3324;50.796;7.228;2022-12-10T15:49:29;2.20;99.90
6581;DHT22;3324;50.796;7.228;2022-12-10T15:51:56;2.20;99.90
6581;DHT22;3324;50.796;7.228;2022-12-10T15:54:36;2.20;99.90
6581;DHT22;3324;50.796;7.228;2022-12-10T15:57:21;2.20;99.90
6581;DHT22;3324;50.796;7.228;2022-12-10T15:59:49;2.20;99.90
6581;DHT22;3324;50.796;7.228;2022-12-10T16:05:00;2.30;99.90
6581;DHT22;3324;50.796;7.228;2022-12-10T16:07:26;2.30;99.90
6581;DHT22;3324;50.796;7.228;2022-12-10T16:09:52;2.30;99.90
6581;DHT22;3324;50.796;7.228;2022-12-10T16:12:18;2.20;99.90
6581;DHT22;3324;50.796;7.228;2022-12-10T16:14:48;2.20;99.90
6581;DHT22;3324;50.796;7.228;2022-12-10T16:17:16;2.20;99.90
6581;DHT22;3324;50.796;7.228;2022-12-10T16:19:42;2.20;99.90
6581;DHT22;3324;50.796;7.228;2022-12-10T16:22:08;2.20;99.90
6581;DHT22;3324;50.796;7.228;2022-12-10T16:24:34;2.20;99.90
6581;DHT22;3324;50.796;7.228;2022-12-10T16:27:00;2.20;99.90
6581;DHT22;3324;50.796;7.228;2022-12-10T16:29:26;2.20;99.90
6581;DHT22;3324;50.796;7.228;2022-12-10T16:31:51;2.10;99.90
6581;DHT22;3324;50.796;7.228;2022-12-10T16:34:17;2.20;99.90
6581;DHT22;3324;50.796;7.228;2022-12-10T16:36:42;2.10;99.90
6581;DHT22;3324;50.796;7.228;2022-12-10T16:39:08;2.10;99.90
6581;DHT22;3324;50.796;7.228;2022-12-10T16:41:34;2.20;99.90
6581;DHT22;3324;50.796;7.228;2022-12-10T16:44:00;2.20;99.90
6581;DHT22;3324;50.796;7.228;2022-12-10T16:46:28;2.20;99.90
6581;DHT22;3324;50.796;7.228;2022-12-10T16:48:53;2.20;99.90
6581;DHT22;3324;50.796;7.228;2022-12-10T16:51:28;2.30;99.90
6581;DHT22;3324;50.796;7.228;2022-12-10T16:53:55;2.30;99.90
6581;DHT22;3324;50.796;7.228;2022-12-10T16:56:21;2.20;99.90
6581;DHT22;3324;50.796;7.228;2022-12-10T16:58:46;2.20;99.90
6581;DHT22;3324;50.796;7.228;2022-12-10T17:01:21;2.10;99.90
6581;DHT22;3324;50.796;7.228;2022-12-10T17:03:48;2.10;99.90
6581;DHT22;3324;50.796;7.228;2022-12-10T17:06:14;2.10;99.90
6581;DHT22;3324;50.796;7.228;2022-12-10T17:08:40;2.10;99.90
6581;DHT22;3324;50.796;7.228;2022-12-10T17:11:14;2.00;99.90
6581;DHT22;3324;50.796;7.228;2022-12-10T17:13:58;2.00;99.90
6581;DHT22;3324;50.796;7.228;2022-12-10T17:16:24;2.00;99.90
6581;DHT22;3324;50.796;7.228;2022-12-10T17:18:50;2.00;99.90
6581;DHT22;3324;50.796;7.228;2022-12-10T17:21:15;2.00;99.90
6581;DHT22;3324;50.796;7.228;2022-12-10T17:23:41;2.00;99.90
6581;DHT22;3324;50.796;7.228;2022-12-10T17:26:06;1.90;99.90
6581;DHT22;3324;50.796;7.228;2022-12-10T17:28:32;1.90;99.90
6581;DHT22;3324;50.796;7.228;2022-12-10T17:30:58;1.80;99.90
6581;DHT22;3324;50.796;7.228;2022-12-10T17:33:25;1.80;99.90
6581;DHT22;3324;50.796;7.228;2022-12-10T17:35:51;1.80;99.90
6581;DHT22;3324;50.796;7.228;2022-12-10T17:38:23;1.80;99.90
6581;DHT22;3324;50.796;7.228;2022-12-10T17:40:50;1.80;99.90
6581;DHT22;3324;50.796;7.228;2022-12-10T17:43:15;1.80;99.90
6581;DHT22;3324;50.796;7.228;2022-12-10T17:45:42;1.70;99.90
6581;DHT22;3324;50.796;7.228;2022-12-10T17:48:16;1.80;99.90
6581;DHT22;3324;50.796;7.228;2022-12-10T17:50:45;1.90;99.90
6581;DHT22;3324;50.796;7.228;2022-12-10T17:53:11;1.80;99.90
6581;DHT22;3324;50.796;7.228;2022-12-10T17:55:41;1.80;99.90
6581;DHT22;3324;50.796;7.228;2022-12-10T17:58:07;1.90;99.90
6581;DHT22;3324;50.796;7.228;2022-12-10T18:00:35;2.00;99.90
6581;DHT22;3324;50.796;7.228;2022-12-10T18:03:01;2.10;99.90
6581;DHT22;3324;50.796;7.228;2022-12-10T18:05:27;2.00;99.90
6581;DHT22;3324;50.796;7.228;2022-12-10T18:07:53;2.00;99.90
6581;DHT22;3324;50.796;7.228;2022-12-10T18:10:24;2.00;99.90
6581;DHT22;3324;50.796;7.228;2022-12-10T18:12:51;2.00;99.90
6581;DHT22;3324;50.796;7.228;2022-12-10T18:15:19;2.00;99.90
6581;DHT22;3324;50.796;7.228;2022-12-10T18:17:46;2.00;99.90
6581;DHT22;3324;50.796;7.228;2022-12-10T18:20:21;1.90;99.90
6581;DHT22;3324;50.796;7.228;2022-12-10T18:22:48;1.90;99.90
6581;DHT22;3324;50.796;7.228;2022-12-10T18:25:14;1.90;99.90
6581;DHT22;3324;50.796;7.228;2022-12-10T18:27:39;1.80;99.90
6581;DHT22;3324;50.796;7.228;2022-12-10T18:30:05;1.80;99.90
6581;DHT22;3324;50.796;7.228;2022-12-10T18:32:31;1.80;99.90
6581;DHT22;3324;50.796;7.228;2022-12-10T18:34:57;1.80;99.90
6581;DHT22;3324;50.796;7.228;2022-12-10T18:37:22;1.80;99.90
6581;DHT22;3324;50.796;7.228;2022-12-10T18:39:48;1.80;99.90
6581;DHT22;3324;50.796;7.228;2022-12-10T18:42:13;1.70;99.90
6581;DHT22;3324;50.796;7.228;2022-12-10T18:44:39;1.70;99.90
6581;DHT22;3324;50.796;7.228;2022-12-10T18:47:09;1.70;99.90
6581;DHT22;3324;50.796;7.228;2022-12-10T18:49:36;1.80;99.90
6581;DHT22;3324;50.796;7.228;2022-12-10T18:52:02;1.70;99.90
6581;DHT22;3324;50.796;7.228;2022-12-10T18:54:28;1.70;99.90